sensor_id;sensor_type;location;lat;lon;timestamp;P1;durP1;ratioP1;P2;durP2;ratioP2
35150;SDS011;55720;51.972;4.624;2023-01-30T00:01:20;13.27;;;5.88;;
35150;SDS011;55720;51.972;4.624;2023-01-30T00:03:49;7.70;;;4.88;;
35150;SDS011;55720;51.972;4.624;2023-01-30T00:06:14;13.75;;;5.50;;
35150;SDS011;55720;51.972;4.624;2023-01-30T00:08:40;13.38;;;5.88;;
35150;SDS011;55720;51.972;4.624;2023-01-30T00:11:06;11.63;;;5.82;;
35150;SDS011;55720;51.972;4.624;2023-01-30T00:13:36;13.85;;;5.43;;
35150;SDS011;55720;51.972;4.624;2023-01-30T00:16:02;13.63;;;6.15;;
35150;SDS011;55720;51.972;4.624;2023-01-30T00:18:28;10.82;;;5.45;;
35150;SDS011;55720;51.972;4.624;2023-01-30T00:20:57;12.93;;;5.70;;
35150;SDS011;55720;51.972;4.624;2023-01-30T00:23:24;12.35;;;5.63;;
35150;SDS011;55720;51.972;4.624;2023-01-30T00:25:50;13.68;;;5.90;;
35150;SDS011;55720;51.972;4.624;2023-01-30T00:28:16;13.75;;;5.45;;
35150;SDS011;55720;51.972;4.624;2023-01-30T00:30:41;11.75;;;5.47;;
35150;SDS011;55720;51.972;4.624;2023-01-30T00:33:08;10.32;;;5.47;;
35150;SDS011;55720;51.972;4.624;2023-01-30T00:35:34;16.00;;;4.72;;
35150;SDS011;55720;51.972;4.624;2023-01-30T00:37:59;16.88;;;5.90;;
35150;SDS011;55720;51.972;4.624;2023-01-30T00:40:28;15.73;;;5.25;;
35150;SDS011;55720;51.972;4.624;2023-01-30T00:42:54;13.85;;;5.18;;
35150;SDS011;55720;51.972;4.624;2023-01-30T00:45:39;8.65;;;4.78;;
35150;SDS011;55720;51.972;4.624;2023-01-30T00:48:24;9.65;;;4.97;;
35150;SDS011;55720;51.972;4.624;2023-01-30T00:50:49;12.05;;;4.97;;
35150;SDS011;55720;51.972;4.624;2023-01-30T00:53:15;15.00;;;4.18;;
35150;SDS011;55720;51.972;4.624;2023-01-30T00:55:41;10.73;;;5.00;;
35150;SDS011;55720;51.972;4.624;2023-01-30T00:58:08;13.57;;;4.65;;
35150;SDS011;55720;51.972;4.624;2023-01-30T01:00:34;12.82;;;4.70;;
35150;SDS011;55720;51.972;4.624;2023-01-30T01:03:00;16.13;;;4.25;;
35150;SDS011;55720;51.972;4.624;2023-01-30T01:05:26;9.80;;;4.53;;
35150;SDS011;55720;51.972;4.624;2023-01-30T01:07:52;11.50;;;4.53;;
35150;SDS011;55720;51.972;4.624;2023-01-30T01:10:18;13.52;;;4.72;;
35150;SDS011;55720;51.972;4.624;2023-01-30T01:12:43;22.23;;;4.82;;
35150;SDS011;55720;51.972;4.624;2023-01-30T01:15:12;10.38;;;4.30;;
35150;SDS011;55720;51.972;4.624;2023-01-30T01:17:39;12.00;;;4.03;;
35150;SDS011;55720;51.972;4.624;2023-01-30T01:20:05;14.65;;;4.28;;
35150;SDS011;55720;51.972;4.624;2023-01-30T01:22:31;12.15;;;4.63;;
35150;SDS011;55720;51.972;4.624;2023-01-30T01:24:56;15.93;;;4.45;;
35150;SDS011;55720;51.972;4.624;2023-01-30T01:27:22;11.90;;;3.60;;
35150;SDS011;55720;51.972;4.624;2023-01-30T01:29:47;8.10;;;3.42;;
35150;SDS011;55720;51.972;4.624;2023-01-30T01:32:13;8.50;;;3.55;;
35150;SDS011;55720;51.972;4.624;2023-01-30T01:34:38;12.70;;;3.65;;
35150;SDS011;55720;51.972;4.624;2023-01-30T01:37:03;15.00;;;3.80;;
35150;SDS011;55720;51.972;4.624;2023-01-30T01:39:29;9.85;;;3.17;;
35150;SDS011;55720;51.972;4.624;2023-01-30T01:42:19;9.77;;;3.05;;
35150;SDS011;55720;51.972;4.624;2023-01-30T01:44:59;18.10;;;3.20;;
35150;SDS011;55720;51.972;4.624;2023-01-30T01:47:26;8.40;;;3.28;;
35150;SDS011;55720;51.972;4.624;2023-01-30T01:49:52;9.98;;;2.50;;
35150;SDS011;55720;51.972;4.624;2023-01-30T01:52:18;8.75;;;2.88;;
35150;SDS011;55720;51.972;4.624;2023-01-30T01:54:46;5.20;;;2.58;;
35150;SDS011;55720;51.972;4.624;2023-01-30T01:57:22;12.40;;;3.10;;
35150;SDS011;55720;51.972;4.624;2023-01-30T02:00:01;10.27;;;3.53;;
35150;SDS011;55720;51.972;4.624;2023-01-30T02:02:28;15.40;;;3.38;;
35150;SDS011;55720;51.972;4.624;2023-01-30T02:04:54;11.20;;;3.42;;
35150;SDS011;55720;51.972;4.624;2023-01-30T02:07:28;11.43;;;3.03;;
35150;SDS011;55720;51.972;4.624;2023-01-30T02:09:59;11.77;;;2.83;;
35150;SDS011;55720;51.972;4.624;2023-01-30T02:12:25;9.07;;;2.85;;
35150;SDS011;55720;51.972;4.624;2023-01-30T02:14:50;8.30;;;2.65;;
35150;SDS011;55720;51.972;4.624;2023-01-30T02:17:18;10.70;;;3.13;;
35150;SDS011;55720;51.972;4.624;2023-01-30T02:19:52;6.68;;;2.65;;
35150;SDS011;55720;51.972;4.624;2023-01-30T02:22:44;12.88;;;3.08;;
35150;SDS011;55720;51.972;4.624;2023-01-30T02:31:15;10.18;;;3.15;;
35150;SDS011;55720;51.972;4.624;2023-01-30T02:47:33;12.85;;;2.78;;
35150;SDS011;55720;51.972;4.624;2023-01-30T02:50:07;8.23;;;2.30;;
35150;SDS011;55720;51.972;4.624;2023-01-30T02:52:41;8.68;;;2.50;;
35150;SDS011;55720;51.972;4.624;2023-01-30T02:55:23;12.25;;;3.08;;
35150;SDS011;55720;51.972;4.624;2023-01-30T02:57:50;22.60;;;3.22;;
35150;SDS011;55720;51.972;4.624;2023-01-30T03:03:27;8.80;;;2.38;;
35150;SDS011;55720;51.972;4.624;2023-01-30T03:11:23;11.05;;;2.50;;
35150;SDS011;55720;51.972;4.624;2023-01-30T03:13:54;10.27;;;2.83;;
35150;SDS011;55720;51.972;4.624;2023-01-30T03:16:44;13.88;;;3.15;;
35150;SDS011;55720;51.972;4.624;2023-01-30T03:19:11;14.05;;;2.38;;
35150;SDS011;55720;51.972;4.624;2023-01-30T03:21:41;11.95;;;2.60;;
35150;SDS011;55720;51.972;4.624;2023-01-30T03:24:08;11.60;;;2.90;;
35150;SDS011;55720;51.972;4.624;2023-01-30T03:26:34;9.27;;;2.53;;
35150;SDS011;55720;51.972;4.624;2023-01-30T03:29:05;8.13;;;3.30;;
35150;SDS011;55720;51.972;4.624;2023-01-30T03:31:30;16.33;;;2.95;;
35150;SDS011;55720;51.972;4.624;2023-01-30T03:33:55;12.48;;;2.97;;
35150;SDS011;55720;51.972;4.624;2023-01-30T03:36:21;17.15;;;3.28;;
35150;SDS011;55720;51.972;4.624;2023-01-30T03:38:46;12.00;;;2.83;;
35150;SDS011;55720;51.972;4.624;2023-01-30T03:41:12;11.65;;;3.00;;
35150;SDS011;55720;51.972;4.624;2023-01-30T03:43:37;7.68;;;2.80;;
35150;SDS011;55720;51.972;4.624;2023-01-30T03:46:02;11.60;;;3.15;;
35150;SDS011;55720;51.972;4.624;2023-01-30T03:48:28;14.43;;;3.38;;
35150;SDS011;55720;51.972;4.624;2023-01-30T03:50:53;15.82;;;2.97;;
35150;SDS011;55720;51.972;4.624;2023-01-30T03:53:19;13.43;;;2.75;;
35150;SDS011;55720;51.972;4.624;2023-01-30T03:55:44;12.55;;;2.47;;
35150;SDS011;55720;51.972;4.624;2023-01-30T03:58:09;17.45;;;3.22;;
35150;SDS011;55720;51.972;4.624;2023-01-30T04:00:35;12.30;;;3.15;;
35150;SDS011;55720;51.972;4.624;2023-01-30T04:03:01;12.32;;;3.08;;
35150;SDS011;55720;51.972;4.624;2023-01-30T04:05:26;10.30;;;2.58;;
35150;SDS011;55720;51.972;4.624;2023-01-30T04:07:53;12.68;;;2.75;;
35150;SDS011;55720;51.972;4.624;2023-01-30T04:10:20;7.38;;;2.35;;
35150;SDS011;55720;51.972;4.624;2023-01-30T04:12:46;14.57;;;2.92;;
35150;SDS011;55720;51.972;4.624;2023-01-30T04:15:11;6.90;;;2.42;;
35150;SDS011;55720;51.972;4.624;2023-01-30T04:17:37;17.25;;;2.97;;
35150;SDS011;55720;51.972;4.624;2023-01-30T04:20:02;11.70;;;2.70;;
35150;SDS011;55720;51.972;4.624;2023-01-30T04:22:28;15.55;;;3.08;;
35150;SDS011;55720;51.972;4.624;2023-01-30T04:24:54;15.27;;;2.83;;
35150;SDS011;55720;51.972;4.624;2023-01-30T04:27:19;13.05;;;2.53;;
35150;SDS011;55720;51.972;4.624;2023-01-30T04:29:44;12.13;;;2.40;;
35150;SDS011;55720;51.972;4.624;2023-01-30T04:32:10;15.88;;;2.92;;
35150;SDS011;55720;51.972;4.624;2023-01-30T04:34:35;13.95;;;3.40;;
35150;SDS011;55720;51.972;4.624;2023-01-30T04:37:01;13.25;;;3.05;;
35150;SDS011;55720;51.972;4.624;2023-01-30T04:39:27;8.23;;;2.20;;
35150;SDS011;55720;51.972;4.624;2023-01-30T04:41:52;9.25;;;2.22;;
35150;SDS011;55720;51.972;4.624;2023-01-30T04:44:17;11.15;;;2.20;;
35150;SDS011;55720;51.972;4.624;2023-01-30T04:46:43;13.57;;;1.98;;
35150;SDS011;55720;51.972;4.624;2023-01-30T04:49:08;8.73;;;2.47;;
35150;SDS011;55720;51.972;4.624;2023-01-30T04:51:34;11.15;;;1.67;;
35150;SDS011;55720;51.972;4.624;2023-01-30T04:54:01;11.00;;;2.00;;
35150;SDS011;55720;51.972;4.624;2023-01-30T04:56:27;12.68;;;1.73;;
35150;SDS011;55720;51.972;4.624;2023-01-30T04:58:52;10.43;;;1.83;;
35150;SDS011;55720;51.972;4.624;2023-01-30T05:01:22;7.88;;;1.55;;
35150;SDS011;55720;51.972;4.624;2023-01-30T05:03:50;10.57;;;1.67;;
35150;SDS011;55720;51.972;4.624;2023-01-30T05:06:17;10.40;;;1.52;;
35150;SDS011;55720;51.972;4.624;2023-01-30T05:08:43;7.85;;;1.70;;
35150;SDS011;55720;51.972;4.624;2023-01-30T05:11:12;7.00;;;1.80;;
35150;SDS011;55720;51.972;4.624;2023-01-30T05:13:37;10.20;;;1.60;;
35150;SDS011;55720;51.972;4.624;2023-01-30T05:16:03;13.35;;;1.88;;
35150;SDS011;55720;51.972;4.624;2023-01-30T05:18:28;14.73;;;1.80;;
35150;SDS011;55720;51.972;4.624;2023-01-30T05:21:01;11.95;;;1.73;;
35150;SDS011;55720;51.972;4.624;2023-01-30T05:23:27;17.98;;;2.05;;
35150;SDS011;55720;51.972;4.624;2023-01-30T05:25:53;16.40;;;1.83;;
35150;SDS011;55720;51.972;4.624;2023-01-30T05:28:18;11.18;;;2.28;;
35150;SDS011;55720;51.972;4.624;2023-01-30T05:30:43;13.55;;;1.75;;
35150;SDS011;55720;51.972;4.624;2023-01-30T05:33:09;10.80;;;1.70;;
35150;SDS011;55720;51.972;4.624;2023-01-30T05:35:34;8.00;;;1.92;;
35150;SDS011;55720;51.972;4.624;2023-01-30T05:37:59;7.53;;;1.90;;
35150;SDS011;55720;51.972;4.624;2023-01-30T05:40:26;12.63;;;2.03;;
35150;SDS011;55720;51.972;4.624;2023-01-30T05:42:52;15.23;;;2.15;;
35150;SDS011;55720;51.972;4.624;2023-01-30T05:45:17;11.98;;;2.00;;
35150;SDS011;55720;51.972;4.624;2023-01-30T05:47:42;14.35;;;2.13;;
35150;SDS011;55720;51.972;4.624;2023-01-30T05:50:08;12.02;;;2.30;;
35150;SDS011;55720;51.972;4.624;2023-01-30T05:52:34;17.67;;;2.13;;
35150;SDS011;55720;51.972;4.624;2023-01-30T05:54:59;19.42;;;2.08;;
35150;SDS011;55720;51.972;4.624;2023-01-30T05:57:25;27.90;;;2.53;;
35150;SDS011;55720;51.972;4.624;2023-01-30T05:59:50;13.65;;;2.40;;
35150;SDS011;55720;51.972;4.624;2023-01-30T06:02:15;17.40;;;2.72;;
35150;SDS011;55720;51.972;4.624;2023-01-30T06:04:41;14.68;;;2.70;;
35150;SDS011;55720;51.972;4.624;2023-01-30T06:07:06;21.73;;;2.75;;
35150;SDS011;55720;51.972;4.624;2023-01-30T06:09:31;18.58;;;3.17;;
35150;SDS011;55720;51.972;4.624;2023-01-30T06:11:57;20.00;;;3.38;;
35150;SDS011;55720;51.972;4.624;2023-01-30T06:14:22;12.30;;;2.20;;
35150;SDS011;55720;51.972;4.624;2023-01-30T06:16:47;25.33;;;2.63;;
35150;SDS011;55720;51.972;4.624;2023-01-30T06:19:13;20.35;;;2.50;;
35150;SDS011;55720;51.972;4.624;2023-01-30T06:21:38;29.38;;;3.05;;
35150;SDS011;55720;51.972;4.624;2023-01-30T06:24:04;25.05;;;3.08;;
35150;SDS011;55720;51.972;4.624;2023-01-30T06:26:29;22.52;;;3.00;;
35150;SDS011;55720;51.972;4.624;2023-01-30T06:28:55;18.25;;;2.20;;
35150;SDS011;55720;51.972;4.624;2023-01-30T06:31:20;19.33;;;2.78;;
35150;SDS011;55720;51.972;4.624;2023-01-30T06:33:45;19.90;;;2.35;;
35150;SDS011;55720;51.972;4.624;2023-01-30T06:36:12;23.88;;;2.60;;
35150;SDS011;55720;51.972;4.624;2023-01-30T06:38:38;15.02;;;2.63;;
35150;SDS011;55720;51.972;4.624;2023-01-30T06:41:03;17.10;;;2.25;;
35150;SDS011;55720;51.972;4.624;2023-01-30T06:43:29;21.80;;;2.30;;
35150;SDS011;55720;51.972;4.624;2023-01-30T06:45:54;17.50;;;2.53;;
35150;SDS011;55720;51.972;4.624;2023-01-30T06:48:23;18.48;;;2.47;;
35150;SDS011;55720;51.972;4.624;2023-01-30T06:50:48;24.08;;;2.70;;
35150;SDS011;55720;51.972;4.624;2023-01-30T06:53:13;23.38;;;2.72;;
35150;SDS011;55720;51.972;4.624;2023-01-30T06:55:39;23.92;;;2.20;;
35150;SDS011;55720;51.972;4.624;2023-01-30T06:58:11;23.08;;;2.40;;
35150;SDS011;55720;51.972;4.624;2023-01-30T07:00:38;15.43;;;2.28;;
35150;SDS011;55720;51.972;4.624;2023-01-30T07:03:08;12.05;;;1.83;;
35150;SDS011;55720;51.972;4.624;2023-01-30T07:05:38;17.83;;;2.08;;
35150;SDS011;55720;51.972;4.624;2023-01-30T07:08:04;18.05;;;2.17;;
35150;SDS011;55720;51.972;4.624;2023-01-30T07:10:29;19.92;;;2.35;;
35150;SDS011;55720;51.972;4.624;2023-01-30T07:12:56;18.27;;;2.30;;
35150;SDS011;55720;51.972;4.624;2023-01-30T07:15:22;17.02;;;2.65;;
35150;SDS011;55720;51.972;4.624;2023-01-30T07:17:47;10.63;;;1.98;;
35150;SDS011;55720;51.972;4.624;2023-01-30T07:20:12;13.00;;;1.65;;
35150;SDS011;55720;51.972;4.624;2023-01-30T07:22:38;18.80;;;2.20;;
35150;SDS011;55720;51.972;4.624;2023-01-30T07:25:03;15.65;;;2.35;;
35150;SDS011;55720;51.972;4.624;2023-01-30T07:27:29;10.80;;;2.15;;
35150;SDS011;55720;51.972;4.624;2023-01-30T07:29:55;15.50;;;2.13;;
35150;SDS011;55720;51.972;4.624;2023-01-30T07:32:20;18.00;;;2.63;;
35150;SDS011;55720;51.972;4.624;2023-01-30T07:34:46;16.88;;;2.47;;
35150;SDS011;55720;51.972;4.624;2023-01-30T07:37:12;17.73;;;2.13;;
35150;SDS011;55720;51.972;4.624;2023-01-30T07:39:37;17.48;;;2.50;;
35150;SDS011;55720;51.972;4.624;2023-01-30T07:42:03;16.08;;;2.00;;
35150;SDS011;55720;51.972;4.624;2023-01-30T07:44:28;16.65;;;2.70;;
35150;SDS011;55720;51.972;4.624;2023-01-30T07:46:54;13.48;;;2.22;;
35150;SDS011;55720;51.972;4.624;2023-01-30T07:49:19;27.98;;;3.10;;
35150;SDS011;55720;51.972;4.624;2023-01-30T07:51:45;9.63;;;2.03;;
35150;SDS011;55720;51.972;4.624;2023-01-30T07:54:11;20.00;;;2.00;;
35150;SDS011;55720;51.972;4.624;2023-01-30T07:56:56;17.80;;;2.08;;
35150;SDS011;55720;51.972;4.624;2023-01-30T07:59:21;20.67;;;3.28;;
35150;SDS011;55720;51.972;4.624;2023-01-30T08:01:47;18.48;;;2.55;;
35150;SDS011;55720;51.972;4.624;2023-01-30T08:04:12;11.70;;;2.05;;
35150;SDS011;55720;51.972;4.624;2023-01-30T08:06:37;13.38;;;2.63;;
35150;SDS011;55720;51.972;4.624;2023-01-30T08:09:03;19.33;;;2.15;;
35150;SDS011;55720;51.972;4.624;2023-01-30T08:11:30;19.50;;;2.00;;
35150;SDS011;55720;51.972;4.624;2023-01-30T08:13:55;18.15;;;2.30;;
35150;SDS011;55720;51.972;4.624;2023-01-30T08:16:20;20.17;;;2.45;;
35150;SDS011;55720;51.972;4.624;2023-01-30T08:18:46;20.00;;;2.30;;
35150;SDS011;55720;51.972;4.624;2023-01-30T08:21:11;17.33;;;2.90;;
35150;SDS011;55720;51.972;4.624;2023-01-30T08:23:38;21.20;;;2.97;;
35150;SDS011;55720;51.972;4.624;2023-01-30T08:26:04;11.07;;;2.22;;
35150;SDS011;55720;51.972;4.624;2023-01-30T08:28:30;26.83;;;2.92;;
35150;SDS011;55720;51.972;4.624;2023-01-30T08:30:56;20.75;;;2.15;;
35150;SDS011;55720;51.972;4.624;2023-01-30T08:33:22;13.85;;;2.20;;
35150;SDS011;55720;51.972;4.624;2023-01-30T08:35:48;26.00;;;2.40;;
35150;SDS011;55720;51.972;4.624;2023-01-30T08:38:14;21.05;;;2.50;;
35150;SDS011;55720;51.972;4.624;2023-01-30T08:40:39;16.45;;;2.28;;
35150;SDS011;55720;51.972;4.624;2023-01-30T08:43:05;31.33;;;2.97;;
35150;SDS011;55720;51.972;4.624;2023-01-30T08:45:30;18.40;;;3.70;;
35150;SDS011;55720;51.972;4.624;2023-01-30T08:47:57;12.45;;;2.50;;
35150;SDS011;55720;51.972;4.624;2023-01-30T08:50:26;18.02;;;2.22;;
35150;SDS011;55720;51.972;4.624;2023-01-30T08:52:52;17.13;;;2.03;;
35150;SDS011;55720;51.972;4.624;2023-01-30T08:55:18;24.55;;;2.22;;
35150;SDS011;55720;51.972;4.624;2023-01-30T08:57:44;20.20;;;2.40;;
35150;SDS011;55720;51.972;4.624;2023-01-30T09:00:10;26.95;;;3.13;;
35150;SDS011;55720;51.972;4.624;2023-01-30T09:02:36;11.20;;;2.13;;
35150;SDS011;55720;51.972;4.624;2023-01-30T09:05:02;25.95;;;2.42;;
35150;SDS011;55720;51.972;4.624;2023-01-30T09:07:28;17.27;;;2.65;;
35150;SDS011;55720;51.972;4.624;2023-01-30T09:09:54;20.83;;;2.70;;
35150;SDS011;55720;51.972;4.624;2023-01-30T09:12:19;16.30;;;2.05;;
35150;SDS011;55720;51.972;4.624;2023-01-30T09:14:45;12.18;;;1.60;;
35150;SDS011;55720;51.972;4.624;2023-01-30T09:17:10;11.35;;;1.83;;
35150;SDS011;55720;51.972;4.624;2023-01-30T09:19:36;21.17;;;2.10;;
35150;SDS011;55720;51.972;4.624;2023-01-30T09:22:02;19.60;;;1.88;;
35150;SDS011;55720;51.972;4.624;2023-01-30T09:24:28;16.40;;;1.88;;
35150;SDS011;55720;51.972;4.624;2023-01-30T09:26:54;14.80;;;2.25;;
35150;SDS011;55720;51.972;4.624;2023-01-30T09:29:23;16.48;;;2.38;;
35150;SDS011;55720;51.972;4.624;2023-01-30T09:31:49;21.55;;;2.22;;
35150;SDS011;55720;51.972;4.624;2023-01-30T09:34:14;14.52;;;1.98;;
35150;SDS011;55720;51.972;4.624;2023-01-30T09:36:40;23.55;;;2.35;;
35150;SDS011;55720;51.972;4.624;2023-01-30T09:39:06;19.02;;;1.83;;
35150;SDS011;55720;51.972;4.624;2023-01-30T09:50:15;18.13;;;2.42;;
35150;SDS011;55720;51.972;4.624;2023-01-30T09:55:36;16.55;;;2.42;;
35150;SDS011;55720;51.972;4.624;2023-01-30T09:58:03;16.35;;;2.55;;
35150;SDS011;55720;51.972;4.624;2023-01-30T10:03:07;15.65;;;2.15;;
35150;SDS011;55720;51.972;4.624;2023-01-30T10:27:45;23.35;;;2.60;;
35150;SDS011;55720;51.972;4.624;2023-01-30T10:30:17;15.05;;;2.95;;
35150;SDS011;55720;51.972;4.624;2023-01-30T10:32:45;18.98;;;2.47;;
35150;SDS011;55720;51.972;4.624;2023-01-30T10:35:26;12.57;;;2.65;;
35150;SDS011;55720;51.972;4.624;2023-01-30T10:38:07;17.42;;;2.97;;
35150;SDS011;55720;51.972;4.624;2023-01-30T10:40:50;18.45;;;2.53;;
35150;SDS011;55720;51.972;4.624;2023-01-30T10:51:37;20.67;;;3.13;;
35150;SDS011;55720;51.972;4.624;2023-01-30T10:54:13;22.67;;;2.42;;
35150;SDS011;55720;51.972;4.624;2023-01-30T10:56:55;20.10;;;3.15;;
35150;SDS011;55720;51.972;4.624;2023-01-30T11:05:23;14.55;;;2.75;;
35150;SDS011;55720;51.972;4.624;2023-01-30T11:07:51;18.55;;;2.20;;
35150;SDS011;55720;51.972;4.624;2023-01-30T11:10:17;16.35;;;2.40;;
35150;SDS011;55720;51.972;4.624;2023-01-30T11:12:45;23.15;;;3.95;;
35150;SDS011;55720;51.972;4.624;2023-01-30T11:15:11;22.00;;;2.25;;
35150;SDS011;55720;51.972;4.624;2023-01-30T11:17:40;23.35;;;2.90;;
35150;SDS011;55720;51.972;4.624;2023-01-30T11:20:12;19.65;;;2.25;;
35150;SDS011;55720;51.972;4.624;2023-01-30T11:22:50;24.65;;;2.92;;
35150;SDS011;55720;51.972;4.624;2023-01-30T11:25:24;22.83;;;2.70;;
35150;SDS011;55720;51.972;4.624;2023-01-30T11:27:54;24.05;;;3.00;;
35150;SDS011;55720;51.972;4.624;2023-01-30T11:30:27;23.02;;;2.60;;
35150;SDS011;55720;51.972;4.624;2023-01-30T11:33:04;15.77;;;2.63;;
35150;SDS011;55720;51.972;4.624;2023-01-30T11:35:41;19.23;;;2.33;;
35150;SDS011;55720;51.972;4.624;2023-01-30T11:40:46;15.27;;;1.70;;
35150;SDS011;55720;51.972;4.624;2023-01-30T11:43:12;23.02;;;3.50;;
35150;SDS011;55720;51.972;4.624;2023-01-30T11:45:39;19.27;;;2.45;;
35150;SDS011;55720;51.972;4.624;2023-01-30T11:48:22;16.48;;;2.33;;
35150;SDS011;55720;51.972;4.624;2023-01-30T11:50:54;18.48;;;2.72;;
35150;SDS011;55720;51.972;4.624;2023-01-30T11:56:33;16.48;;;2.53;;
35150;SDS011;55720;51.972;4.624;2023-01-30T11:59:01;20.92;;;2.90;;
35150;SDS011;55720;51.972;4.624;2023-01-30T12:01:31;21.20;;;2.83;;
35150;SDS011;55720;51.972;4.624;2023-01-30T12:03:59;24.52;;;3.30;;
35150;SDS011;55720;51.972;4.624;2023-01-30T12:06:32;28.63;;;3.42;;
35150;SDS011;55720;51.972;4.624;2023-01-30T12:09:00;19.60;;;2.30;;
35150;SDS011;55720;51.972;4.624;2023-01-30T12:11:27;28.60;;;3.38;;
35150;SDS011;55720;51.972;4.624;2023-01-30T12:14:39;13.70;;;2.53;;
35150;SDS011;55720;51.972;4.624;2023-01-30T12:17:11;23.13;;;3.60;;
35150;SDS011;55720;51.972;4.624;2023-01-30T12:33:25;22.85;;;2.60;;
35150;SDS011;55720;51.972;4.624;2023-01-30T12:36:05;21.52;;;2.65;;
35150;SDS011;55720;51.972;4.624;2023-01-30T12:46:34;31.50;;;3.58;;
35150;SDS011;55720;51.972;4.624;2023-01-30T12:49:13;36.83;;;3.28;;
35150;SDS011;55720;51.972;4.624;2023-01-30T13:02:27;29.85;;;3.03;;
35150;SDS011;55720;51.972;4.624;2023-01-30T13:10:38;24.52;;;2.95;;
35150;SDS011;55720;51.972;4.624;2023-01-30T13:13:27;22.65;;;3.60;;
35150;SDS011;55720;51.972;4.624;2023-01-30T13:16:12;26.05;;;3.40;;
35150;SDS011;55720;51.972;4.624;2023-01-30T13:21:33;23.83;;;2.58;;
35150;SDS011;55720;51.972;4.624;2023-01-30T13:24:09;19.80;;;3.28;;
35150;SDS011;55720;51.972;4.624;2023-01-30T13:26:45;25.67;;;2.83;;
35150;SDS011;55720;51.972;4.624;2023-01-30T13:29:16;17.13;;;2.90;;
35150;SDS011;55720;51.972;4.624;2023-01-30T13:31:51;20.92;;;2.47;;
35150;SDS011;55720;51.972;4.624;2023-01-30T13:34:25;29.40;;;2.78;;
35150;SDS011;55720;51.972;4.624;2023-01-30T13:40:07;21.50;;;3.17;;
35150;SDS011;55720;51.972;4.624;2023-01-30T13:42:44;19.48;;;2.92;;
35150;SDS011;55720;51.972;4.624;2023-01-30T13:45:20;17.48;;;2.38;;
35150;SDS011;55720;51.972;4.624;2023-01-30T13:47:59;18.42;;;3.17;;
35150;SDS011;55720;51.972;4.624;2023-01-30T13:56:04;19.33;;;2.67;;
35150;SDS011;55720;51.972;4.624;2023-01-30T14:01:12;26.67;;;2.63;;
35150;SDS011;55720;51.972;4.624;2023-01-30T14:03:39;30.85;;;3.08;;
35150;SDS011;55720;51.972;4.624;2023-01-30T14:09:04;22.00;;;2.47;;
35150;SDS011;55720;51.972;4.624;2023-01-30T14:11:48;29.10;;;2.95;;
35150;SDS011;55720;51.972;4.624;2023-01-30T14:14:22;29.95;;;3.00;;
35150;SDS011;55720;51.972;4.624;2023-01-30T14:16:52;19.20;;;2.20;;
35150;SDS011;55720;51.972;4.624;2023-01-30T14:22:51;26.83;;;3.67;;
35150;SDS011;55720;51.972;4.624;2023-01-30T14:27:46;24.60;;;2.90;;
35150;SDS011;55720;51.972;4.624;2023-01-30T14:35:45;22.65;;;2.75;;
35150;SDS011;55720;51.972;4.624;2023-01-30T14:38:15;18.88;;;2.33;;
35150;SDS011;55720;51.972;4.624;2023-01-30T14:40:44;34.75;;;3.50;;
35150;SDS011;55720;51.972;4.624;2023-01-30T14:45:44;26.60;;;3.88;;
35150;SDS011;55720;51.972;4.624;2023-01-30T14:51:19;27.25;;;3.17;;
35150;SDS011;55720;51.972;4.624;2023-01-30T15:07:43;20.98;;;2.83;;
35150;SDS011;55720;51.972;4.624;2023-01-30T15:32:42;22.63;;;2.65;;
35150;SDS011;55720;51.972;4.624;2023-01-30T15:37:49;23.63;;;3.03;;
35150;SDS011;55720;51.972;4.624;2023-01-30T15:51:10;26.88;;;3.97;;
35150;SDS011;55720;51.972;4.624;2023-01-30T15:53:41;28.50;;;3.30;;
35150;SDS011;55720;51.972;4.624;2023-01-30T15:56:09;23.05;;;3.20;;
35150;SDS011;55720;51.972;4.624;2023-01-30T15:58:41;19.55;;;2.97;;
35150;SDS011;55720;51.972;4.624;2023-01-30T16:01:08;23.00;;;3.40;;
35150;SDS011;55720;51.972;4.624;2023-01-30T16:03:40;24.63;;;2.88;;
35150;SDS011;55720;51.972;4.624;2023-01-30T16:06:18;33.17;;;3.90;;
35150;SDS011;55720;51.972;4.624;2023-01-30T16:08:58;24.70;;;3.40;;
35150;SDS011;55720;51.972;4.624;2023-01-30T16:11:41;29.33;;;3.60;;
35150;SDS011;55720;51.972;4.624;2023-01-30T16:14:11;32.75;;;3.35;;
35150;SDS011;55720;51.972;4.624;2023-01-30T16:16:39;31.52;;;3.60;;
35150;SDS011;55720;51.972;4.624;2023-01-30T16:19:10;31.67;;;3.60;;
35150;SDS011;55720;51.972;4.624;2023-01-30T16:21:43;25.10;;;3.55;;
35150;SDS011;55720;51.972;4.624;2023-01-30T16:24:15;27.92;;;3.33;;
35150;SDS011;55720;51.972;4.624;2023-01-30T16:26:45;29.38;;;3.08;;
35150;SDS011;55720;51.972;4.624;2023-01-30T16:29:15;32.50;;;4.28;;
35150;SDS011;55720;51.972;4.624;2023-01-30T16:31:45;21.77;;;2.97;;
35150;SDS011;55720;51.972;4.624;2023-01-30T16:36:52;24.48;;;2.70;;
35150;SDS011;55720;51.972;4.624;2023-01-30T16:41:55;22.58;;;3.60;;
35150;SDS011;55720;51.972;4.624;2023-01-30T16:44:25;28.30;;;3.22;;
35150;SDS011;55720;51.972;4.624;2023-01-30T16:52:17;26.30;;;3.00;;
35150;SDS011;55720;51.972;4.624;2023-01-30T16:54:47;22.13;;;3.17;;
35150;SDS011;55720;51.972;4.624;2023-01-30T16:57:18;11.80;;;2.28;;
35150;SDS011;55720;51.972;4.624;2023-01-30T16:59:52;22.73;;;2.92;;
35150;SDS011;55720;51.972;4.624;2023-01-30T17:02:23;25.48;;;3.15;;
35150;SDS011;55720;51.972;4.624;2023-01-30T17:04:55;22.98;;;3.20;;
35150;SDS011;55720;51.972;4.624;2023-01-30T17:07:42;22.17;;;3.45;;
35150;SDS011;55720;51.972;4.624;2023-01-30T17:12:51;35.47;;;3.28;;
35150;SDS011;55720;51.972;4.624;2023-01-30T17:17:42;27.10;;;2.97;;
35150;SDS011;55720;51.972;4.624;2023-01-30T17:20:09;22.75;;;3.15;;
35150;SDS011;55720;51.972;4.624;2023-01-30T17:22:36;20.25;;;3.25;;
35150;SDS011;55720;51.972;4.624;2023-01-30T17:25:04;25.88;;;3.45;;
35150;SDS011;55720;51.972;4.624;2023-01-30T17:27:31;31.50;;;3.72;;
35150;SDS011;55720;51.972;4.624;2023-01-30T17:29:57;17.52;;;2.67;;
35150;SDS011;55720;51.972;4.624;2023-01-30T17:32:23;25.38;;;3.97;;
35150;SDS011;55720;51.972;4.624;2023-01-30T17:34:48;21.63;;;2.78;;
35150;SDS011;55720;51.972;4.624;2023-01-30T17:37:18;25.77;;;3.25;;
35150;SDS011;55720;51.972;4.624;2023-01-30T17:39:45;28.38;;;2.90;;
35150;SDS011;55720;51.972;4.624;2023-01-30T17:42:11;25.25;;;3.05;;
35150;SDS011;55720;51.972;4.624;2023-01-30T17:44:37;26.88;;;3.65;;
35150;SDS011;55720;51.972;4.624;2023-01-30T17:47:03;20.45;;;3.70;;
35150;SDS011;55720;51.972;4.624;2023-01-30T17:49:29;23.85;;;3.05;;
35150;SDS011;55720;51.972;4.624;2023-01-30T17:51:54;26.58;;;3.25;;
35150;SDS011;55720;51.972;4.624;2023-01-30T17:54:23;21.40;;;3.10;;
35150;SDS011;55720;51.972;4.624;2023-01-30T17:56:58;25.80;;;2.97;;
35150;SDS011;55720;51.972;4.624;2023-01-30T17:59:26;23.30;;;2.95;;
35150;SDS011;55720;51.972;4.624;2023-01-30T18:01:51;21.70;;;3.00;;
35150;SDS011;55720;51.972;4.624;2023-01-30T18:04:18;18.88;;;3.00;;
35150;SDS011;55720;51.972;4.624;2023-01-30T18:06:46;31.55;;;3.03;;
35150;SDS011;55720;51.972;4.624;2023-01-30T18:09:15;27.88;;;2.92;;
35150;SDS011;55720;51.972;4.624;2023-01-30T18:11:43;18.77;;;2.90;;
35150;SDS011;55720;51.972;4.624;2023-01-30T18:14:09;24.52;;;2.90;;
35150;SDS011;55720;51.972;4.624;2023-01-30T18:16:34;28.02;;;3.78;;
35150;SDS011;55720;51.972;4.624;2023-01-30T18:19:00;21.25;;;2.85;;
35150;SDS011;55720;51.972;4.624;2023-01-30T18:21:29;27.27;;;3.37;;
35150;SDS011;55720;51.972;4.624;2023-01-30T18:23:58;27.87;;;4.13;;
35150;SDS011;55720;51.972;4.624;2023-01-30T18:26:24;21.05;;;2.88;;